Share

Krabi, Thailand

Krabi (VTSG) Elev 82 ft | 8.10 °N, 98.99 °E | Change Station

Current weather conditions updated 32 minutes ago

Partly Cloudy
Partly Cloudy
88 °F
Feels Like 102 °F
N
5
Wind Variable Wind from NNE
Sunrise 6:13 AM
Sunset 6:33 PM
Moon Waning Gibbous

Today is forecast to be Cooler than yesterday. Showers and thunderstorms.

Pressure 29.83 in
Visibility 6.2 miles
Clouds Few 2000 ft
Heat Index 102 °F
Dew Point 79 °F
Humidity 75%
Rainfall 0.00 in
Snow Depth Not available.
UV 10 out of 16
Pollen Not available.
Air Quality Not available.
Flu Activity Not available.
METAR VTSG 190300Z 03004KT 300V070 9999 FEW020 31/26 Q1010 A2985 INFO R RWY32

More Conditions Fewer Conditions

Pressure 29.83 in
Visibility 6.2 miles
Clouds Few 2000 ft
Heat Index 102 °F
Dew Point 79 °F
Humidity 75%
Rainfall 0.00 in
Snow Depth Not available.
UV 10 out of 16
Pollen Not available.
Air Quality Not available.
Flu Activity Not available.
METAR VTSG 190300Z 03004KT 300V070 9999 FEW020 31/26 Q1010 A2985 INFO R RWY32

More Conditions Fewer Conditions

10-Day Weather Forecast

Almanac

Astronomy

Apr. 19, 2014 Rise Set
Actual Time 6:13 AM ICT 6:33 PM ICT
Civil Twilight 5:52 AM ICT 6:54 PM ICT
Nautical Twilight 5:27 AM ICT 7:19 PM ICT
Astronomical Twilight 5:02 AM ICT 7:44 PM ICT
Moon 10:20 PM ICT 9:27 AM ICT
Length of Visible Light 13h 02m
Length of Day
12h 19m
Tomorrow will be 0m 25s longer.
Waning Gibbous, 83% of the Moon is Illuminated
Apr 18
Waning Gibbous
Apr 22
Last Quarter
Apr 29
New
May 6
First Quarter
May 14
Full

Yesterday's Extremes

Country Highs Country Lows

Community

  • Sunset Silhouettes
    Sunset Silhouettes
  • FL sunset Perico Isle
    FL sunset Perico Isle
  • Cloudy spring view
    Cloudy spring view
  • Old barn
    Old barn
  • What's for Lunch?
    What's for Lunch?

WunderPhotos

Upload Photos

1,702,631 photos uploaded!

WunderBlogs® & News

Nearby

Snow Depth

Not available.

Coastal Water Temperatures

Place Temperature
No Stations Reporting

Earthquake Activity

City Distance Mag. Time & Date
No recent earthquake activity has been reported nearby.
Minimum magnitude displayed is 2.5.

Nearby Weather Stations

Station Location Temp. Heat Index Dew Point Humidity Wind Precip. Elev Updated Type
Ao Nang, Krabi, Ao Nang 88.3 °F 103 °F 79 °F 74% ESE  at  3.0 mph 0.00 in / hr 177 ft 10:30 AM ICT Normal

Show More Stations Show Fewer Stations

What do you think?

We're not finished. Please let us know what you like, what you don't like, and what you are still missing.